createdAt,value
2019-01-04T00:00:40.907Z,102347.27
2019-01-04T00:03:10.702Z,102341.69
2019-01-04T00:05:40.586Z,102340.02
2019-01-04T00:08:10.594Z,102339.58
2019-01-04T00:10:40.174Z,102337.75
2019-01-04T00:13:10.452Z,102328.77
2019-01-04T00:15:40.176Z,102336.21
2019-01-04T00:18:09.856Z,102338.95
2019-01-04T00:20:39.639Z,102338.27
2019-01-04T00:23:10.146Z,102339.98
2019-01-04T00:25:40.001Z,102343.00
2019-01-04T00:28:09.759Z,102341.95
2019-01-04T00:30:39.470Z,102332.66
2019-01-04T00:33:09.163Z,102337.71
2019-01-04T00:35:39.338Z,102332.61
2019-01-04T00:38:09.290Z,102333.13
2019-01-04T00:40:39.231Z,102334.55
2019-01-04T00:43:08.842Z,102329.36
2019-01-04T00:45:38.613Z,102336.55
2019-01-04T00:48:08.342Z,102347.85
2019-01-04T00:50:38.046Z,102346.06
2019-01-04T00:53:07.806Z,102337.12
2019-01-04T00:55:50.763Z,102336.44
2019-01-04T00:58:46.423Z,102337.23
2019-01-04T01:01:51.978Z,102332.38
2019-01-04T01:04:41.157Z,102330.41
2019-01-04T01:07:45.572Z,102325.63
2019-01-04T01:10:52.930Z,102333.59
2019-01-04T01:13:42.343Z,102340.16
2019-01-04T01:16:55.517Z,102336.03
2019-01-04T01:19:48.802Z,102331.35
2019-01-04T01:22:57.791Z,102332.88
2019-01-04T01:25:40.785Z,102337.82
2019-01-04T01:29:00.501Z,102338.66
2019-01-04T01:32:00.469Z,102338.66
2019-01-04T01:34:55.185Z,102344.70
2019-01-04T01:37:53.516Z,102340.89
2019-01-04T01:40:46.125Z,102343.98
2019-01-04T01:44:02.841Z,102342.85
2019-01-04T01:46:40.091Z,102341.39
2019-01-04T01:49:31.417Z,102328.41
2019-01-04T01:52:05.733Z,102329.38
2019-01-04T01:54:35.392Z,102329.38
2019-01-04T01:57:05.086Z,102333.06
2019-01-04T01:59:34.907Z,102322.00
2019-01-04T02:02:04.500Z,102316.60
2019-01-04T02:04:34.079Z,102311.33
2019-01-04T02:07:03.866Z,102311.29
2019-01-04T02:09:33.441Z,102304.08
2019-01-04T02:12:03.262Z,102304.78
2019-01-04T02:14:33.009Z,102310.02
2019-01-04T02:17:02.714Z,102311.15
2019-01-04T02:19:32.498Z,102301.80
2019-01-04T02:22:02.009Z,102301.96
2019-01-04T02:24:31.901Z,102296.25
2019-01-04T02:27:01.768Z,102300.99
2019-01-04T02:29:31.669Z,102294.30
2019-01-04T02:32:01.315Z,102286.18
2019-01-04T02:34:31.492Z,102291.16
2019-01-04T02:37:01.337Z,102287.09
2019-01-04T02:39:31.153Z,102301.28
2019-01-04T02:42:00.769Z,102302.43
2019-01-04T02:44:30.917Z,102306.52
2019-01-04T02:47:00.406Z,102299.78
2019-01-04T02:49:30.346Z,102295.15
2019-01-04T02:51:59.907Z,102297.53
2019-01-04T02:54:30.340Z,102295.91
2019-01-04T02:56:59.944Z,102302.52
2019-01-04T02:59:29.558Z,102297.55
2019-01-04T03:01:59.383Z,102294.08
2019-01-04T03:04:29.081Z,102290.52
2019-01-04T03:06:58.771Z,102283.49
2019-01-04T03:09:28.467Z,102277.85
2019-01-04T03:11:58.116Z,102277.84
2019-01-04T03:14:27.761Z,102280.62
2019-01-04T03:16:57.637Z,102280.38
2019-01-04T03:19:27.279Z,102269.88
2019-01-04T03:21:57.025Z,102274.75
2019-01-04T03:24:26.576Z,102269.12
2019-01-04T03:26:56.189Z,102261.05
2019-01-04T03:29:25.890Z,102261.98
2019-01-04T03:31:55.563Z,102255.00
2019-01-04T03:34:25.044Z,102254.13
2019-01-04T03:36:54.544Z,102253.29
2019-01-04T03:39:24.044Z,102247.84
2019-01-04T03:41:53.779Z,102247.97
2019-01-04T03:44:23.339Z,102259.11
2019-01-04T03:46:52.976Z,102253.67
2019-01-04T03:49:22.689Z,102260.88
2019-01-04T03:51:52.481Z,102269.12
2019-01-04T03:54:21.968Z,102269.20
2019-01-04T03:56:51.624Z,102265.67
2019-01-04T03:59:21.285Z,102259.23
2019-01-04T04:01:50.848Z,102252.45
2019-01-04T04:04:20.643Z,102253.27
2019-01-04T04:06:50.245Z,102245.28
2019-01-04T04:09:20.206Z,102235.62
2019-01-04T04:11:49.814Z,102238.50
2019-01-04T04:14:19.445Z,102237.66
2019-01-04T04:16:48.999Z,102244.27
2019-01-04T04:19:18.611Z,102237.30
2019-01-04T04:21:48.151Z,102230.27
2019-01-04T04:24:17.752Z,102232.19
2019-01-04T04:26:47.349Z,102221.06
2019-01-04T04:29:17.081Z,102219.61
2019-01-04T04:31:46.636Z,102220.89
2019-01-04T04:34:16.254Z,102223.77
2019-01-04T04:36:45.960Z,102222.38
2019-01-04T04:39:15.616Z,102226.70
2019-01-04T04:41:45.211Z,102226.70
2019-01-04T04:44:14.960Z,102230.60
2019-01-04T04:46:44.485Z,102229.41
2019-01-04T04:49:14.106Z,102230.22
2019-01-04T04:51:43.674Z,102229.14
2019-01-04T04:54:13.345Z,102227.92
2019-01-04T04:56:43.375Z,102220.55
2019-01-04T04:59:13.160Z,102218.16
2019-01-04T05:01:43.623Z,102219.39
2019-01-04T05:04:13.236Z,102211.93
2019-01-04T05:06:43.366Z,102209.57
2019-01-04T05:09:13.155Z,102222.48
2019-01-04T05:11:42.950Z,102216.56
2019-01-04T05:14:12.603Z,102221.68
2019-01-04T05:16:42.309Z,102209.36
2019-01-04T05:19:11.818Z,102207.25
2019-01-04T05:21:42.123Z,102205.90
2019-01-04T05:24:11.780Z,102195.36
2019-01-04T05:26:41.840Z,102183.17
2019-01-04T05:29:11.438Z,102188.42
2019-01-04T05:31:41.004Z,102176.96
2019-01-04T05:34:10.716Z,102182.66
2019-01-04T05:36:40.438Z,102181.12
2019-01-04T05:39:09.981Z,102181.73
2019-01-04T05:41:39.803Z,102181.99
2019-01-04T05:44:09.379Z,102185.34
2019-01-04T05:46:39.205Z,102176.11
2019-01-04T05:49:08.893Z,102187.53
2019-01-04T05:51:38.684Z,102194.09
2019-01-04T05:54:08.442Z,102181.41
2019-01-04T05:56:38.159Z,102170.05
2019-01-04T05:59:07.798Z,102158.27
2019-01-04T06:01:37.459Z,102160.73
2019-01-04T06:04:07.397Z,102164.72
2019-01-04T06:06:36.865Z,102165.55
2019-01-04T06:09:08.472Z,102166.62
2019-01-04T06:11:38.039Z,102158.86
2019-01-04T06:14:07.743Z,102166.30
2019-01-04T06:16:37.313Z,102167.67
2019-01-04T06:19:06.919Z,102168.48
2019-01-04T06:21:36.413Z,102168.23
2019-01-04T06:24:06.107Z,102170.70
2019-01-04T06:26:35.616Z,102165.19
2019-01-04T06:29:05.208Z,102169.96
2019-01-04T06:31:34.873Z,102174.58
2019-01-04T06:34:04.502Z,102168.77
2019-01-04T06:36:34.334Z,102165.03
2019-01-04T06:39:05.765Z,102155.58
2019-01-04T06:41:35.324Z,102164.08
2019-01-04T06:44:05.264Z,102158.07
2019-01-04T06:46:34.823Z,102156.09
2019-01-04T06:49:04.429Z,102160.64
2019-01-04T06:51:33.949Z,102161.33
2019-01-04T06:54:03.533Z,102162.66
2019-01-04T06:56:33.100Z,102165.28
2019-01-04T06:59:02.660Z,102169.22
2019-01-04T07:01:32.207Z,102170.88
2019-01-04T07:04:01.930Z,102169.33
2019-01-04T07:06:31.536Z,102156.53
2019-01-04T07:09:01.084Z,102164.28
2019-01-04T07:11:30.637Z,102160.70
2019-01-04T07:14:00.453Z,102172.23
2019-01-04T07:16:30.113Z,102169.57
2019-01-04T07:19:00.003Z,102166.95
2019-01-04T07:21:29.547Z,102156.17
2019-01-04T07:23:59.291Z,102151.75
2019-01-04T07:26:28.902Z,102162.02
2019-01-04T07:28:58.387Z,102156.69
2019-01-04T07:31:28.006Z,102163.09
2019-01-04T07:33:57.628Z,102171.67
2019-01-04T07:36:27.637Z,102177.24
2019-01-04T07:38:57.578Z,102162.02
2019-01-04T07:41:27.262Z,102164.50
2019-01-04T07:43:56.933Z,102164.31
2019-01-04T07:46:26.528Z,102162.05
2019-01-04T07:48:56.498Z,102157.33
2019-01-04T07:51:25.981Z,102146.93
2019-01-04T07:53:56.219Z,102151.44
2019-01-04T07:56:25.699Z,102155.37
2019-01-04T07:58:55.864Z,102151.55
2019-01-04T08:01:25.779Z,102152.31
2019-01-04T08:03:55.776Z,102145.63
2019-01-04T08:06:25.263Z,102133.69
2019-01-04T08:08:55.623Z,102130.80
2019-01-04T08:11:25.543Z,102115.91
2019-01-04T08:13:55.511Z,102123.19
2019-01-04T08:16:25.069Z,102114.36
2019-01-04T08:18:55.823Z,102126.94
2019-01-04T08:21:25.463Z,102131.86
2019-01-04T08:23:56.297Z,102128.41
2019-01-04T08:26:25.856Z,102130.55
2019-01-04T08:28:56.127Z,102126.37
2019-01-04T08:31:25.817Z,102125.59
2019-01-04T08:33:55.533Z,102131.09
2019-01-04T08:36:25.549Z,102126.09
2019-01-04T08:38:55.148Z,102130.27
2019-01-04T08:41:24.945Z,102134.20
2019-01-04T08:43:54.623Z,102134.65
2019-01-04T08:46:24.364Z,102145.14
2019-01-04T08:48:54.293Z,102136.86
2019-01-04T08:51:23.918Z,102142.77
2019-01-04T08:53:59.149Z,102149.59
2019-01-04T08:56:32.127Z,102132.66
2019-01-04T08:59:01.967Z,102132.33
2019-01-04T09:01:31.616Z,102135.75
2019-01-04T09:04:01.693Z,102124.20
2019-01-04T09:06:31.487Z,102127.45
2019-01-04T09:09:01.417Z,102125.81
2019-01-04T09:11:31.155Z,102118.53
2019-01-04T09:14:01.347Z,102104.99
2019-01-04T09:16:31.047Z,102109.91
2019-01-04T09:19:01.104Z,102110.87
2019-01-04T09:21:31.204Z,102106.81
2019-01-04T09:24:01.489Z,102113.98
2019-01-04T09:26:31.140Z,102111.13
2019-01-04T09:29:01.429Z,102105.25
2019-01-04T09:31:31.030Z,102107.30
2019-01-04T09:34:01.071Z,102108.11
2019-01-04T09:36:30.627Z,102105.48
2019-01-04T09:39:03.316Z,102103.20
2019-01-04T09:41:37.229Z,102102.62
2019-01-04T09:44:06.956Z,102101.75
2019-01-04T09:46:36.581Z,102085.94
2019-01-04T09:49:06.563Z,102086.29
2019-01-04T09:51:36.386Z,102082.14
2019-01-04T09:54:06.352Z,102075.96
2019-01-04T09:56:35.949Z,102080.96
2019-01-04T09:59:06.018Z,102074.97
2019-01-04T10:01:35.653Z,102082.96
2019-01-04T10:04:05.871Z,102068.24
2019-01-04T10:06:35.532Z,102059.67
2019-01-04T10:09:07.456Z,102065.48
2019-01-04T10:11:38.926Z,102061.02
2019-01-04T10:14:08.851Z,102060.21
2019-01-04T10:16:38.511Z,102056.33
2019-01-04T10:19:08.589Z,102047.81
2019-01-04T10:21:38.271Z,102052.36
2019-01-04T10:24:08.138Z,102045.13
2019-01-04T10:26:37.822Z,102044.27
2019-01-04T10:29:08.023Z,102039.70
2019-01-04T10:31:37.585Z,102039.09
2019-01-04T10:34:07.260Z,102029.48
2019-01-04T10:36:37.089Z,102031.47
2019-01-04T10:39:08.465Z,102027.28
2019-01-04T10:41:38.383Z,102024.19
2019-01-04T10:44:08.522Z,102011.94
2019-01-04T10:46:38.423Z,102012.06
2019-01-04T10:49:08.096Z,101999.79
2019-01-04T10:51:38.200Z,102003.41
2019-01-04T10:54:08.606Z,102011.12
2019-01-04T10:56:38.203Z,102002.48
2019-01-04T10:59:08.625Z,102003.77
2019-01-04T11:01:38.394Z,101994.77
2019-01-04T11:04:08.131Z,101996.88
2019-01-04T11:06:38.022Z,101999.00
2019-01-04T11:09:09.791Z,101997.87
2019-01-04T11:11:39.442Z,101985.91
2019-01-04T11:14:09.641Z,101990.75
2019-01-04T11:16:39.455Z,101992.61
2019-01-04T11:19:09.465Z,101981.31
2019-01-04T11:21:39.138Z,101975.66
2019-01-04T11:24:21.515Z,101978.41
2019-01-04T11:26:53.215Z,101982.80
2019-01-04T11:29:45.190Z,101980.11
2019-01-04T11:32:34.088Z,101977.13
2019-01-04T11:35:32.025Z,101968.30
2019-01-04T11:38:15.017Z,101973.85
2019-01-04T11:40:58.282Z,101983.19
2019-01-04T11:44:06.197Z,101974.95
2019-01-04T11:46:55.340Z,101965.68
2019-01-04T11:49:47.498Z,101964.56
2019-01-04T11:52:24.514Z,101941.44
2019-01-04T11:54:55.783Z,101932.45
2019-01-04T11:57:25.449Z,101922.95
2019-01-04T11:59:55.146Z,101917.04
2019-01-04T12:02:26.414Z,101930.02
2019-01-04T12:04:57.805Z,101911.96
2019-01-04T12:07:27.566Z,101912.19
2019-01-04T12:09:57.188Z,101916.95
2019-01-04T12:12:27.176Z,101904.77
2019-01-04T12:14:56.782Z,101895.54
2019-01-04T12:17:29.638Z,101898.09
2019-01-04T12:19:59.261Z,101898.00
2019-01-04T12:22:30.053Z,101892.75
2019-01-04T12:25:00.050Z,101880.58
2019-01-04T12:27:29.587Z,101882.92
2019-01-04T12:29:59.192Z,101863.62
2019-01-04T12:32:28.957Z,101854.55
2019-01-04T12:34:58.794Z,101849.77
2019-01-04T12:37:28.557Z,101836.16
2019-01-04T12:39:58.367Z,101830.30
2019-01-04T12:42:27.960Z,101816.86
2019-01-04T12:44:57.987Z,101818.73
2019-01-04T12:47:28.058Z,101825.33
2019-01-04T12:49:58.080Z,101831.97
2019-01-04T12:52:27.821Z,101826.89
2019-01-04T12:54:57.861Z,101824.26
2019-01-04T12:57:27.622Z,101826.72
2019-01-04T12:59:57.259Z,101824.33
2019-01-04T13:02:27.024Z,101824.72
2019-01-04T13:04:56.676Z,101815.37
2019-01-04T13:07:26.469Z,101817.73
2019-01-04T13:09:56.217Z,101816.69
2019-01-04T13:12:25.862Z,101823.92
2019-01-04T13:14:55.526Z,101813.91
2019-01-04T13:17:25.329Z,101807.52
2019-01-04T13:19:54.950Z,101804.62
2019-01-04T13:22:24.884Z,101795.96
2019-01-04T13:24:54.392Z,101782.94
2019-01-04T13:27:24.158Z,101775.46
2019-01-04T13:29:53.740Z,101774.54
2019-01-04T13:32:23.721Z,101776.14
2019-01-04T13:34:53.431Z,101801.77
2019-01-04T13:37:23.427Z,101801.67
2019-01-04T13:39:53.162Z,101799.27
2019-01-04T13:42:22.964Z,101797.36
2019-01-04T13:44:52.596Z,101780.24
2019-01-04T13:47:22.474Z,101791.13
2019-01-04T13:49:52.160Z,101808.78
2019-01-04T13:52:22.117Z,101807.36
2019-01-04T13:54:51.791Z,101795.31
2019-01-04T13:57:21.916Z,101806.12
2019-01-04T13:59:51.431Z,101823.77
2019-01-04T14:02:21.621Z,101838.02
2019-01-04T14:04:51.657Z,101838.95
2019-01-04T14:07:21.501Z,101834.31
2019-01-04T14:09:51.256Z,101826.23
2019-01-04T14:12:20.880Z,101812.02
2019-01-04T14:14:50.427Z,101814.91
2019-01-04T14:17:20.341Z,101815.64
2019-01-04T14:19:49.946Z,101814.34
2019-01-04T14:22:19.668Z,101811.73
2019-01-04T14:24:49.326Z,101804.52
2019-01-04T14:27:19.085Z,101803.08
2019-01-04T14:29:48.760Z,101793.89
2019-01-04T14:32:18.630Z,101785.49
2019-01-04T14:34:48.740Z,101780.94
2019-01-04T14:37:18.599Z,101776.84
2019-01-04T14:39:58.950Z,101776.92
2019-01-04T14:42:28.599Z,101780.88
2019-01-04T14:44:58.290Z,101790.47
2019-01-04T14:47:28.184Z,101792.97
2019-01-04T14:49:58.006Z,101798.55
2019-01-04T14:52:28.299Z,101798.27
2019-01-04T14:54:58.001Z,101794.76
2019-01-04T14:57:27.985Z,101800.66
2019-01-04T14:59:57.957Z,101792.12
2019-01-04T15:02:28.129Z,101799.52
2019-01-04T15:04:57.925Z,101788.50
2019-01-04T15:07:28.246Z,101791.79
2019-01-04T15:09:57.883Z,101789.09
2019-01-04T15:12:28.145Z,101785.94
2019-01-04T15:14:57.773Z,101779.45
2019-01-04T15:17:28.465Z,101780.70
2019-01-04T15:19:58.408Z,101772.87
2019-01-04T15:22:28.472Z,101780.53
2019-01-04T15:24:58.223Z,101774.73
2019-01-04T15:27:28.750Z,101776.41
2019-01-04T15:29:58.340Z,101761.75
2019-01-04T15:32:28.315Z,101755.38
2019-01-04T15:34:58.000Z,101738.30
2019-01-04T15:37:27.937Z,101740.47
2019-01-04T15:39:57.692Z,101741.98
2019-01-04T15:42:27.426Z,101751.00
2019-01-04T15:44:56.919Z,101748.16
2019-01-04T15:47:26.797Z,101750.81
2019-01-04T15:49:56.546Z,101749.83
2019-01-04T15:52:26.810Z,101745.06
2019-01-04T15:54:56.394Z,101753.02
2019-01-04T15:57:26.264Z,101744.04
2019-01-04T15:59:55.872Z,101740.41
2019-01-04T16:02:25.808Z,101734.42
2019-01-04T16:04:55.486Z,101729.13
2019-01-04T16:07:25.434Z,101735.05
2019-01-04T16:09:55.224Z,101729.06
2019-01-04T16:12:24.944Z,101727.80
2019-01-04T16:14:54.743Z,101733.08
2019-01-04T16:17:24.338Z,101737.95
2019-01-04T16:19:53.933Z,101727.95
2019-01-04T16:22:23.763Z,101732.11
2019-01-04T16:24:53.353Z,101733.70
2019-01-04T16:27:23.121Z,101723.52
2019-01-04T16:29:52.932Z,101715.89
2019-01-04T16:32:22.427Z,101715.98
2019-01-04T16:34:52.413Z,101707.10
2019-01-04T16:37:21.909Z,101708.30
2019-01-04T16:39:51.728Z,101702.06
2019-01-04T16:42:21.480Z,101713.64
2019-01-04T16:44:51.188Z,101710.56
2019-01-04T16:47:20.843Z,101707.47
2019-01-04T16:49:50.509Z,101711.80
2019-01-04T16:52:20.245Z,101703.36
2019-01-04T16:54:50.035Z,101699.02
2019-01-04T16:57:19.561Z,101695.31
2019-01-04T16:59:49.435Z,101688.56
2019-01-04T17:02:19.056Z,101696.96
2019-01-04T17:04:48.914Z,101692.92
2019-01-04T17:07:18.415Z,101687.37
2019-01-04T17:09:48.218Z,101690.22
2019-01-04T17:12:17.938Z,101689.73
2019-01-04T17:14:47.918Z,101692.03
2019-01-04T17:17:17.809Z,101686.82
2019-01-04T17:19:47.628Z,101687.23
2019-01-04T17:22:17.263Z,101684.09
2019-01-04T17:24:46.890Z,101685.28
2019-01-04T17:27:16.574Z,101681.47
2019-01-04T17:29:46.166Z,101672.93
2019-01-04T17:32:15.702Z,101677.18
2019-01-04T17:34:45.310Z,101677.18
2019-01-04T17:37:15.094Z,101655.91
2019-01-04T17:39:44.673Z,101659.64
2019-01-04T17:42:14.400Z,101661.50
2019-01-04T17:44:44.022Z,101663.67
2019-01-04T17:47:13.784Z,101668.16
2019-01-04T17:49:43.618Z,101656.26
2019-01-04T17:52:13.334Z,101659.44
2019-01-04T17:54:43.378Z,101649.67
2019-01-04T17:57:13.272Z,101650.34
2019-01-04T17:59:43.270Z,101652.39
2019-01-04T18:02:13.030Z,101652.94
2019-01-04T18:04:42.748Z,101654.53
2019-01-04T18:07:13.051Z,101654.09
2019-01-04T18:09:43.254Z,101656.07
2019-01-04T18:12:12.934Z,101655.62
2019-01-04T18:14:42.598Z,101661.55
2019-01-04T18:17:12.192Z,101664.17
2019-01-04T18:19:42.000Z,101663.67
2019-01-04T18:22:11.947Z,101659.12
2019-01-04T18:24:41.527Z,101663.60
2019-01-04T18:27:11.314Z,101662.24
2019-01-04T18:29:41.053Z,101670.08
2019-01-04T18:32:10.662Z,101671.41
2019-01-04T18:34:40.729Z,101674.92
2019-01-04T18:37:10.561Z,101681.77
2019-01-04T18:39:40.145Z,101685.34
2019-01-04T18:42:09.983Z,101689.38
2019-01-04T18:44:39.594Z,101686.35
2019-01-04T18:47:09.289Z,101681.97
2019-01-04T18:49:38.962Z,101682.73
2019-01-04T18:52:09.177Z,101676.22
2019-01-04T18:54:39.367Z,101684.09
2019-01-04T18:57:09.154Z,101679.84
2019-01-04T18:59:38.904Z,101680.58
2019-01-04T19:02:08.577Z,101675.23
2019-01-04T19:04:39.169Z,101682.98
2019-01-04T19:07:08.978Z,101678.73
2019-01-04T19:09:38.978Z,101676.77
2019-01-04T19:12:08.593Z,101675.55
2019-01-04T19:14:39.565Z,101677.33
2019-01-04T19:17:09.237Z,101682.17
2019-01-04T19:19:38.909Z,101683.19
2019-01-04T19:22:08.846Z,101680.95
2019-01-04T19:24:38.767Z,101689.23
2019-01-04T19:27:08.713Z,101687.09
2019-01-04T19:29:38.430Z,101688.98
2019-01-04T19:32:08.109Z,101680.91
2019-01-04T19:34:37.744Z,101678.64
2019-01-04T19:37:07.442Z,101679.20
2019-01-04T19:39:37.144Z,101679.38
2019-01-04T19:42:07.218Z,101682.66
2019-01-04T19:44:36.786Z,101667.25
2019-01-04T19:47:06.398Z,101676.95
2019-01-04T19:49:36.033Z,101678.31
2019-01-04T19:52:05.843Z,101674.63
2019-01-04T19:54:35.533Z,101675.87
2019-01-04T19:57:05.470Z,101670.75
2019-01-04T19:59:34.968Z,101670.09
2019-01-04T20:02:04.753Z,101677.41
2019-01-04T20:04:34.423Z,101668.76
2019-01-04T20:07:22.457Z,101666.53
2019-01-04T20:10:46.622Z,101670.14
2019-01-04T20:13:53.532Z,101660.26
2019-01-04T20:16:32.967Z,101656.53
2019-01-04T20:19:04.999Z,101652.46
2019-01-04T20:21:36.414Z,101646.03
2019-01-04T20:24:23.745Z,101644.26
2019-01-04T20:26:57.747Z,101639.41
2019-01-04T20:29:44.892Z,101640.67
2019-01-04T20:32:32.169Z,101642.88
2019-01-04T20:35:15.254Z,101630.78
2019-01-04T20:38:01.870Z,101637.02
2019-01-04T20:40:49.709Z,101638.13
2019-01-04T20:43:27.275Z,101630.31
2019-01-04T20:46:13.753Z,101620.57
2019-01-04T20:49:01.426Z,101616.08
2019-01-04T20:51:32.562Z,101612.17
2019-01-04T20:54:03.739Z,101614.41
2019-01-04T20:56:47.377Z,101613.67
2019-01-04T20:59:35.133Z,101609.92
2019-01-04T21:02:16.056Z,101606.91
2019-01-04T21:05:03.573Z,101607.05
2019-01-04T21:07:43.129Z,101609.36
2019-01-04T21:10:31.306Z,101611.38
2019-01-04T21:13:18.310Z,101597.59
2019-01-04T21:16:04.908Z,101599.92
2019-01-04T21:18:52.786Z,101594.97
2019-01-04T21:21:24.197Z,101586.70
2019-01-04T21:24:01.925Z,101587.67
2019-01-04T21:26:39.212Z,101595.13
2019-01-04T21:29:26.481Z,101589.31
2019-01-04T21:32:03.197Z,101585.38
2019-01-04T21:34:40.625Z,101589.64
2019-01-04T21:37:14.637Z,101587.09
2019-01-04T21:39:53.162Z,101576.16
2019-01-04T21:42:40.662Z,101578.28
2019-01-04T21:45:23.753Z,101570.96
2019-01-04T21:47:53.136Z,101568.27
2019-01-04T21:50:39.812Z,101565.14
2019-01-04T21:53:11.070Z,101570.84
2019-01-04T21:55:52.880Z,101574.83
2019-01-04T21:58:40.696Z,101570.09
2019-01-04T22:01:21.298Z,101557.75
2019-01-04T22:04:08.696Z,101555.96
2019-01-04T22:06:40.141Z,101556.34
2019-01-04T22:09:11.748Z,101561.65
2019-01-04T22:11:55.201Z,101548.98
2019-01-04T22:14:41.691Z,101548.53
2019-01-04T22:17:27.836Z,101539.34
2019-01-04T22:20:15.179Z,101516.48
2019-01-04T22:23:02.407Z,101530.57
2019-01-04T22:25:50.106Z,101526.84
2019-01-04T22:28:21.335Z,101524.00
2019-01-04T22:30:58.670Z,101527.27
2019-01-04T22:33:41.731Z,101528.20
2019-01-04T22:36:13.282Z,101529.77
2019-01-04T22:38:44.609Z,101526.02
2019-01-04T22:41:21.447Z,101530.08
2019-01-04T22:43:57.145Z,101518.72
2019-01-04T22:46:34.445Z,101518.63
2019-01-04T22:49:06.502Z,101530.19
2019-01-04T22:51:53.885Z,101516.78
2019-01-04T22:54:41.572Z,101513.39
2019-01-04T22:57:29.188Z,101504.67
2019-01-04T23:00:00.504Z,101505.20
2019-01-04T23:02:43.772Z,101501.70
2019-01-04T23:05:31.752Z,101495.64
2019-01-04T23:08:15.456Z,101503.56
2019-01-04T23:11:03.414Z,101487.17
2019-01-04T23:13:40.980Z,101493.25
2019-01-04T23:16:29.165Z,101492.88
2019-01-04T23:19:00.458Z,101492.13
2019-01-04T23:22:08.527Z,101479.66
2019-01-04T23:24:44.257Z,101479.80
2019-01-04T23:27:15.716Z,101477.90
2019-01-04T23:29:59.014Z,101482.30
2019-01-04T23:32:30.327Z,101478.94
2019-01-04T23:35:02.924Z,101467.31
2019-01-04T23:37:50.220Z,101464.34
2019-01-04T23:40:40.001Z,101458.33
2019-01-04T23:43:20.498Z,101459.72
2019-01-04T23:46:08.402Z,101459.12
2019-01-04T23:48:42.350Z,101452.96
2019-01-04T23:51:22.934Z,101450.62
2019-01-04T23:54:00.475Z,101445.02
2019-01-04T23:56:47.861Z,101451.01
2019-01-04T23:59:35.294Z,101457.84
